sensor_id;sensor_type;location;lat;lon;timestamp;P1;durP1;ratioP1;P2;durP2;ratioP2
38089;SDS011;23904;52.322;10.232;2023-05-18T00:00:34;12.35;;;3.60;;
38089;SDS011;23904;52.322;10.232;2023-05-18T00:03:00;11.30;;;3.67;;
38089;SDS011;23904;52.322;10.232;2023-05-18T00:05:27;11.77;;;3.42;;
38089;SDS011;23904;52.322;10.232;2023-05-18T00:07:57;10.93;;;3.72;;
38089;SDS011;23904;52.322;10.232;2023-05-18T00:10:24;12.07;;;3.75;;
38089;SDS011;23904;52.322;10.232;2023-05-18T00:12:50;13.77;;;5.28;;
38089;SDS011;23904;52.322;10.232;2023-05-18T00:15:16;7.68;;;3.58;;
38089;SDS011;23904;52.322;10.232;2023-05-18T00:17:43;15.85;;;4.32;;
38089;SDS011;23904;52.322;10.232;2023-05-18T00:20:09;8.68;;;3.15;;
38089;SDS011;23904;52.322;10.232;2023-05-18T00:22:35;13.13;;;4.15;;
38089;SDS011;23904;52.322;10.232;2023-05-18T00:25:06;13.13;;;4.20;;
38089;SDS011;23904;52.322;10.232;2023-05-18T00:27:32;11.73;;;3.70;;
38089;SDS011;23904;52.322;10.232;2023-05-18T00:29:58;15.02;;;4.10;;
38089;SDS011;23904;52.322;10.232;2023-05-18T00:32:23;11.60;;;4.20;;
38089;SDS011;23904;52.322;10.232;2023-05-18T00:34:49;15.10;;;3.30;;
38089;SDS011;23904;52.322;10.232;2023-05-18T00:37:15;13.73;;;3.92;;
38089;SDS011;23904;52.322;10.232;2023-05-18T00:39:41;13.25;;;3.25;;
38089;SDS011;23904;52.322;10.232;2023-05-18T00:42:07;11.05;;;3.22;;
38089;SDS011;23904;52.322;10.232;2023-05-18T00:44:33;12.30;;;3.17;;
38089;SDS011;23904;52.322;10.232;2023-05-18T00:46:58;17.52;;;3.47;;
38089;SDS011;23904;52.322;10.232;2023-05-18T00:49:25;9.50;;;3.67;;
38089;SDS011;23904;52.322;10.232;2023-05-18T00:51:51;9.80;;;2.90;;
38089;SDS011;23904;52.322;10.232;2023-05-18T00:54:18;14.73;;;3.70;;
38089;SDS011;23904;52.322;10.232;2023-05-18T00:56:44;13.35;;;3.20;;
38089;SDS011;23904;52.322;10.232;2023-05-18T00:59:12;12.27;;;3.45;;
38089;SDS011;23904;52.322;10.232;2023-05-18T01:01:39;10.50;;;2.95;;
38089;SDS011;23904;52.322;10.232;2023-05-18T01:04:10;9.73;;;2.58;;
38089;SDS011;23904;52.322;10.232;2023-05-18T01:06:38;10.15;;;3.10;;
38089;SDS011;23904;52.322;10.232;2023-05-18T01:09:06;15.18;;;3.20;;
38089;SDS011;23904;52.322;10.232;2023-05-18T01:14:12;9.02;;;3.28;;
38089;SDS011;23904;52.322;10.232;2023-05-18T01:16:54;10.75;;;4.00;;
38089;SDS011;23904;52.322;10.232;2023-05-18T01:25:49;11.10;;;3.03;;
38089;SDS011;23904;52.322;10.232;2023-05-18T01:28:20;14.27;;;4.10;;
38089;SDS011;23904;52.322;10.232;2023-05-18T01:30:57;14.20;;;4.10;;
38089;SDS011;23904;52.322;10.232;2023-05-18T01:33:23;9.57;;;3.50;;
38089;SDS011;23904;52.322;10.232;2023-05-18T01:35:49;13.32;;;3.63;;
38089;SDS011;23904;52.322;10.232;2023-05-18T01:38:16;13.65;;;3.13;;
38089;SDS011;23904;52.322;10.232;2023-05-18T01:41:27;11.68;;;3.25;;
38089;SDS011;23904;52.322;10.232;2023-05-18T01:43:59;12.18;;;4.13;;
38089;SDS011;23904;52.322;10.232;2023-05-18T01:49:38;16.00;;;4.10;;
38089;SDS011;23904;52.322;10.232;2023-05-18T01:52:18;8.45;;;2.67;;
38089;SDS011;23904;52.322;10.232;2023-05-18T01:54:51;10.13;;;2.97;;
38089;SDS011;23904;52.322;10.232;2023-05-18T01:57:22;15.93;;;3.88;;
38089;SDS011;23904;52.322;10.232;2023-05-18T01:59:52;14.80;;;3.60;;
38089;SDS011;23904;52.322;10.232;2023-05-18T02:02:19;16.98;;;4.05;;
38089;SDS011;23904;52.322;10.232;2023-05-18T02:04:45;13.05;;;3.83;;
38089;SDS011;23904;52.322;10.232;2023-05-18T02:07:10;16.42;;;3.65;;
38089;SDS011;23904;52.322;10.232;2023-05-18T02:09:36;12.05;;;3.38;;
38089;SDS011;23904;52.322;10.232;2023-05-18T02:12:02;13.10;;;3.60;;
38089;SDS011;23904;52.322;10.232;2023-05-18T02:14:27;9.52;;;3.80;;
38089;SDS011;23904;52.322;10.232;2023-05-18T02:16:53;18.33;;;3.63;;
38089;SDS011;23904;52.322;10.232;2023-05-18T02:19:19;13.55;;;3.13;;
38089;SDS011;23904;52.322;10.232;2023-05-18T02:21:45;15.77;;;2.92;;
38089;SDS011;23904;52.322;10.232;2023-05-18T02:24:11;14.18;;;3.33;;
38089;SDS011;23904;52.322;10.232;2023-05-18T02:26:37;11.20;;;3.28;;
38089;SDS011;23904;52.322;10.232;2023-05-18T02:29:03;9.05;;;3.65;;
38089;SDS011;23904;52.322;10.232;2023-05-18T02:31:38;12.38;;;3.30;;
38089;SDS011;23904;52.322;10.232;2023-05-18T02:34:04;11.38;;;3.08;;
38089;SDS011;23904;52.322;10.232;2023-05-18T02:36:30;8.68;;;2.72;;
38089;SDS011;23904;52.322;10.232;2023-05-18T02:39:01;16.42;;;3.72;;
38089;SDS011;23904;52.322;10.232;2023-05-18T02:41:31;12.25;;;3.58;;
38089;SDS011;23904;52.322;10.232;2023-05-18T02:43:58;14.32;;;3.58;;
38089;SDS011;23904;52.322;10.232;2023-05-18T02:46:23;17.70;;;4.10;;
38089;SDS011;23904;52.322;10.232;2023-05-18T02:48:49;13.20;;;3.90;;
38089;SDS011;23904;52.322;10.232;2023-05-18T02:51:15;14.02;;;3.90;;
38089;SDS011;23904;52.322;10.232;2023-05-18T02:53:40;11.73;;;3.40;;
38089;SDS011;23904;52.322;10.232;2023-05-18T02:56:09;9.35;;;3.03;;
38089;SDS011;23904;52.322;10.232;2023-05-18T02:58:36;11.82;;;3.75;;
38089;SDS011;23904;52.322;10.232;2023-05-18T03:01:03;18.08;;;3.63;;
38089;SDS011;23904;52.322;10.232;2023-05-18T03:03:31;11.07;;;4.22;;
38089;SDS011;23904;52.322;10.232;2023-05-18T03:05:58;14.60;;;3.63;;
38089;SDS011;23904;52.322;10.232;2023-05-18T03:08:26;9.68;;;3.70;;
38089;SDS011;23904;52.322;10.232;2023-05-18T03:10:52;12.13;;;3.75;;
38089;SDS011;23904;52.322;10.232;2023-05-18T03:13:19;14.77;;;4.47;;
38089;SDS011;23904;52.322;10.232;2023-05-18T03:15:44;9.90;;;3.42;;
38089;SDS011;23904;52.322;10.232;2023-05-18T03:18:10;9.25;;;3.63;;
38089;SDS011;23904;52.322;10.232;2023-05-18T03:20:36;14.00;;;3.80;;
38089;SDS011;23904;52.322;10.232;2023-05-18T03:23:03;10.80;;;3.63;;
38089;SDS011;23904;52.322;10.232;2023-05-18T03:25:29;12.43;;;3.72;;
38089;SDS011;23904;52.322;10.232;2023-05-18T03:27:56;10.90;;;3.95;;
38089;SDS011;23904;52.322;10.232;2023-05-18T03:30:23;8.88;;;3.30;;
38089;SDS011;23904;52.322;10.232;2023-05-18T03:32:48;10.93;;;3.72;;
38089;SDS011;23904;52.322;10.232;2023-05-18T03:35:14;9.48;;;3.63;;
38089;SDS011;23904;52.322;10.232;2023-05-18T03:37:40;13.45;;;3.40;;
38089;SDS011;23904;52.322;10.232;2023-05-18T03:40:07;11.75;;;4.00;;
38089;SDS011;23904;52.322;10.232;2023-05-18T03:42:36;7.68;;;3.28;;
38089;SDS011;23904;52.322;10.232;2023-05-18T03:45:03;11.30;;;3.28;;
38089;SDS011;23904;52.322;10.232;2023-05-18T03:47:30;16.25;;;3.65;;
38089;SDS011;23904;52.322;10.232;2023-05-18T03:49:56;9.80;;;3.45;;
38089;SDS011;23904;52.322;10.232;2023-05-18T03:52:21;13.35;;;4.45;;
38089;SDS011;23904;52.322;10.232;2023-05-18T03:54:48;15.40;;;3.67;;
38089;SDS011;23904;52.322;10.232;2023-05-18T03:57:15;8.90;;;2.85;;
38089;SDS011;23904;52.322;10.232;2023-05-18T03:59:41;10.63;;;3.83;;
38089;SDS011;23904;52.322;10.232;2023-05-18T04:02:08;9.32;;;3.75;;
38089;SDS011;23904;52.322;10.232;2023-05-18T04:04:35;12.70;;;3.78;;
38089;SDS011;23904;52.322;10.232;2023-05-18T04:07:00;14.93;;;3.75;;
38089;SDS011;23904;52.322;10.232;2023-05-18T04:09:29;12.52;;;4.03;;
38089;SDS011;23904;52.322;10.232;2023-05-18T04:11:56;11.00;;;4.40;;
38089;SDS011;23904;52.322;10.232;2023-05-18T04:14:21;14.98;;;3.83;;
38089;SDS011;23904;52.322;10.232;2023-05-18T04:16:48;12.63;;;3.58;;
38089;SDS011;23904;52.322;10.232;2023-05-18T04:19:16;10.45;;;3.65;;
38089;SDS011;23904;52.322;10.232;2023-05-18T04:21:43;14.00;;;3.80;;
38089;SDS011;23904;52.322;10.232;2023-05-18T04:24:11;14.60;;;4.28;;
38089;SDS011;23904;52.322;10.232;2023-05-18T04:26:38;13.95;;;4.00;;
38089;SDS011;23904;52.322;10.232;2023-05-18T04:29:06;9.55;;;3.55;;
38089;SDS011;23904;52.322;10.232;2023-05-18T04:31:34;14.05;;;4.35;;
38089;SDS011;23904;52.322;10.232;2023-05-18T04:34:01;16.15;;;4.07;;
38089;SDS011;23904;52.322;10.232;2023-05-18T04:36:26;20.05;;;6.00;;
38089;SDS011;23904;52.322;10.232;2023-05-18T04:38:55;17.15;;;4.38;;
38089;SDS011;23904;52.322;10.232;2023-05-18T04:41:24;9.43;;;3.67;;
38089;SDS011;23904;52.322;10.232;2023-05-18T04:43:51;7.75;;;3.90;;
38089;SDS011;23904;52.322;10.232;2023-05-18T04:46:17;12.95;;;5.07;;
38089;SDS011;23904;52.322;10.232;2023-05-18T04:48:42;9.63;;;3.75;;
38089;SDS011;23904;52.322;10.232;2023-05-18T04:51:08;7.78;;;4.10;;
38089;SDS011;23904;52.322;10.232;2023-05-18T04:53:34;12.98;;;5.05;;
38089;SDS011;23904;52.322;10.232;2023-05-18T04:56:02;11.90;;;4.60;;
38089;SDS011;23904;52.322;10.232;2023-05-18T04:58:28;13.73;;;4.25;;
38089;SDS011;23904;52.322;10.232;2023-05-18T05:00:54;13.32;;;4.70;;
38089;SDS011;23904;52.322;10.232;2023-05-18T05:03:20;10.85;;;4.68;;
38089;SDS011;23904;52.322;10.232;2023-05-18T05:05:46;10.23;;;4.97;;
38089;SDS011;23904;52.322;10.232;2023-05-18T05:08:12;10.27;;;4.25;;
38089;SDS011;23904;52.322;10.232;2023-05-18T05:10:40;13.57;;;4.90;;
38089;SDS011;23904;52.322;10.232;2023-05-18T05:13:05;17.38;;;5.70;;
38089;SDS011;23904;52.322;10.232;2023-05-18T05:15:31;12.25;;;4.63;;
38089;SDS011;23904;52.322;10.232;2023-05-18T05:17:57;13.70;;;4.45;;
38089;SDS011;23904;52.322;10.232;2023-05-18T05:20:22;12.43;;;4.28;;
38089;SDS011;23904;52.322;10.232;2023-05-18T05:22:48;24.65;;;5.97;;
38089;SDS011;23904;52.322;10.232;2023-05-18T05:25:14;8.30;;;3.67;;
38089;SDS011;23904;52.322;10.232;2023-05-18T05:27:39;16.50;;;4.53;;
38089;SDS011;23904;52.322;10.232;2023-05-18T05:30:05;12.18;;;4.63;;
38089;SDS011;23904;52.322;10.232;2023-05-18T05:32:32;13.40;;;4.57;;
38089;SDS011;23904;52.322;10.232;2023-05-18T05:34:57;13.18;;;4.70;;
38089;SDS011;23904;52.322;10.232;2023-05-18T05:37:23;18.35;;;5.00;;
38089;SDS011;23904;52.322;10.232;2023-05-18T05:39:48;11.90;;;4.38;;
38089;SDS011;23904;52.322;10.232;2023-05-18T05:42:14;19.45;;;4.97;;
38089;SDS011;23904;52.322;10.232;2023-05-18T05:44:40;15.00;;;3.97;;
38089;SDS011;23904;52.322;10.232;2023-05-18T05:47:06;14.95;;;4.82;;
38089;SDS011;23904;52.322;10.232;2023-05-18T05:49:32;16.15;;;4.72;;
38089;SDS011;23904;52.322;10.232;2023-05-18T05:51:58;10.43;;;4.50;;
38089;SDS011;23904;52.322;10.232;2023-05-18T05:54:24;12.85;;;4.75;;
38089;SDS011;23904;52.322;10.232;2023-05-18T05:56:49;11.45;;;4.10;;
38089;SDS011;23904;52.322;10.232;2023-05-18T05:59:15;17.02;;;4.60;;
38089;SDS011;23904;52.322;10.232;2023-05-18T06:01:40;10.90;;;4.32;;
38089;SDS011;23904;52.322;10.232;2023-05-18T06:04:06;11.75;;;4.60;;
38089;SDS011;23904;52.322;10.232;2023-05-18T06:06:35;10.15;;;4.07;;
38089;SDS011;23904;52.322;10.232;2023-05-18T06:09:03;13.45;;;4.88;;
38089;SDS011;23904;52.322;10.232;2023-05-18T06:11:29;11.55;;;4.28;;
38089;SDS011;23904;52.322;10.232;2023-05-18T06:13:55;11.50;;;4.55;;
38089;SDS011;23904;52.322;10.232;2023-05-18T06:16:21;13.80;;;3.95;;
38089;SDS011;23904;52.322;10.232;2023-05-18T06:18:46;17.35;;;4.72;;
38089;SDS011;23904;52.322;10.232;2023-05-18T06:21:12;17.23;;;5.72;;
38089;SDS011;23904;52.322;10.232;2023-05-18T06:23:39;13.38;;;4.93;;
38089;SDS011;23904;52.322;10.232;2023-05-18T06:26:05;13.02;;;4.50;;
38089;SDS011;23904;52.322;10.232;2023-05-18T06:28:30;12.23;;;4.68;;
38089;SDS011;23904;52.322;10.232;2023-05-18T06:30:56;19.42;;;5.35;;
38089;SDS011;23904;52.322;10.232;2023-05-18T06:33:23;15.70;;;4.82;;
38089;SDS011;23904;52.322;10.232;2023-05-18T06:35:48;11.57;;;4.53;;
38089;SDS011;23904;52.322;10.232;2023-05-18T06:38:14;14.30;;;5.38;;
38089;SDS011;23904;52.322;10.232;2023-05-18T06:40:40;12.35;;;5.38;;
38089;SDS011;23904;52.322;10.232;2023-05-18T06:43:05;9.93;;;5.20;;
38089;SDS011;23904;52.322;10.232;2023-05-18T06:45:32;17.17;;;5.15;;
38089;SDS011;23904;52.322;10.232;2023-05-18T06:47:57;19.17;;;5.70;;
38089;SDS011;23904;52.322;10.232;2023-05-18T06:50:23;11.40;;;4.88;;
38089;SDS011;23904;52.322;10.232;2023-05-18T06:52:48;15.82;;;5.32;;
38089;SDS011;23904;52.322;10.232;2023-05-18T06:55:15;11.65;;;4.20;;
38089;SDS011;23904;52.322;10.232;2023-05-18T06:57:41;14.20;;;3.42;;
38089;SDS011;23904;52.322;10.232;2023-05-18T07:00:06;13.27;;;4.32;;
38089;SDS011;23904;52.322;10.232;2023-05-18T07:02:33;10.55;;;3.72;;
38089;SDS011;23904;52.322;10.232;2023-05-18T07:04:58;18.92;;;4.07;;
38089;SDS011;23904;52.322;10.232;2023-05-18T07:07:25;19.33;;;4.15;;
38089;SDS011;23904;52.322;10.232;2023-05-18T07:09:51;18.20;;;4.00;;
38089;SDS011;23904;52.322;10.232;2023-05-18T07:12:18;14.63;;;4.50;;
38089;SDS011;23904;52.322;10.232;2023-05-18T07:14:44;15.77;;;3.13;;
38089;SDS011;23904;52.322;10.232;2023-05-18T07:17:09;11.98;;;3.13;;
38089;SDS011;23904;52.322;10.232;2023-05-18T07:19:35;11.40;;;3.35;;
38089;SDS011;23904;52.322;10.232;2023-05-18T07:22:00;17.98;;;3.00;;
38089;SDS011;23904;52.322;10.232;2023-05-18T07:24:27;11.35;;;2.75;;
38089;SDS011;23904;52.322;10.232;2023-05-18T07:26:53;14.20;;;3.70;;
38089;SDS011;23904;52.322;10.232;2023-05-18T07:29:18;10.43;;;3.28;;
38089;SDS011;23904;52.322;10.232;2023-05-18T07:31:44;16.88;;;3.40;;
38089;SDS011;23904;52.322;10.232;2023-05-18T07:34:10;14.15;;;4.68;;
38089;SDS011;23904;52.322;10.232;2023-05-18T07:36:35;9.40;;;3.17;;
38089;SDS011;23904;52.322;10.232;2023-05-18T07:39:01;12.50;;;3.20;;
38089;SDS011;23904;52.322;10.232;2023-05-18T07:41:27;14.02;;;3.70;;
38089;SDS011;23904;52.322;10.232;2023-05-18T07:43:52;9.63;;;3.20;;
38089;SDS011;23904;52.322;10.232;2023-05-18T07:46:18;10.30;;;2.95;;
38089;SDS011;23904;52.322;10.232;2023-05-18T07:48:44;12.90;;;3.67;;
38089;SDS011;23904;52.322;10.232;2023-05-18T07:51:10;13.85;;;2.67;;
38089;SDS011;23904;52.322;10.232;2023-05-18T07:53:36;14.40;;;2.67;;
38089;SDS011;23904;52.322;10.232;2023-05-18T07:56:02;10.88;;;2.85;;
38089;SDS011;23904;52.322;10.232;2023-05-18T07:58:29;11.25;;;3.05;;
38089;SDS011;23904;52.322;10.232;2023-05-18T08:00:55;10.85;;;2.83;;
38089;SDS011;23904;52.322;10.232;2023-05-18T08:03:20;12.68;;;3.45;;
38089;SDS011;23904;52.322;10.232;2023-05-18T08:05:46;11.90;;;2.67;;
38089;SDS011;23904;52.322;10.232;2023-05-18T08:08:12;10.50;;;2.70;;
38089;SDS011;23904;52.322;10.232;2023-05-18T08:10:39;18.25;;;3.25;;
38089;SDS011;23904;52.322;10.232;2023-05-18T08:13:05;11.70;;;3.58;;
38089;SDS011;23904;52.322;10.232;2023-05-18T08:15:32;8.88;;;3.20;;
38089;SDS011;23904;52.322;10.232;2023-05-18T08:17:58;15.30;;;2.85;;
38089;SDS011;23904;52.322;10.232;2023-05-18T08:20:24;9.35;;;2.30;;
38089;SDS011;23904;52.322;10.232;2023-05-18T08:22:50;15.02;;;2.97;;
38089;SDS011;23904;52.322;10.232;2023-05-18T08:25:15;10.18;;;2.92;;
38089;SDS011;23904;52.322;10.232;2023-05-18T08:27:41;10.05;;;2.80;;
38089;SDS011;23904;52.322;10.232;2023-05-18T08:30:07;11.55;;;2.78;;
38089;SDS011;23904;52.322;10.232;2023-05-18T08:32:33;10.05;;;2.75;;
38089;SDS011;23904;52.322;10.232;2023-05-18T08:35:02;11.23;;;2.90;;
38089;SDS011;23904;52.322;10.232;2023-05-18T08:37:29;10.68;;;2.85;;
38089;SDS011;23904;52.322;10.232;2023-05-18T08:39:55;9.35;;;2.45;;
38089;SDS011;23904;52.322;10.232;2023-05-18T08:42:32;12.90;;;2.67;;
38089;SDS011;23904;52.322;10.232;2023-05-18T08:45:09;11.02;;;2.47;;
38089;SDS011;23904;52.322;10.232;2023-05-18T08:47:39;10.77;;;2.60;;
38089;SDS011;23904;52.322;10.232;2023-05-18T08:50:05;9.70;;;3.03;;
38089;SDS011;23904;52.322;10.232;2023-05-18T08:52:35;10.13;;;2.97;;
38089;SDS011;23904;52.322;10.232;2023-05-18T08:55:06;7.82;;;2.33;;
38089;SDS011;23904;52.322;10.232;2023-05-18T08:57:33;8.15;;;2.20;;
38089;SDS011;23904;52.322;10.232;2023-05-18T09:00:00;8.18;;;2.80;;
38089;SDS011;23904;52.322;10.232;2023-05-18T09:02:28;10.40;;;3.25;;
38089;SDS011;23904;52.322;10.232;2023-05-18T09:04:55;8.20;;;2.55;;
38089;SDS011;23904;52.322;10.232;2023-05-18T09:07:23;10.10;;;2.78;;
38089;SDS011;23904;52.322;10.232;2023-05-18T09:09:48;10.52;;;2.60;;
38089;SDS011;23904;52.322;10.232;2023-05-18T09:12:15;11.10;;;2.67;;
38089;SDS011;23904;52.322;10.232;2023-05-18T09:14:43;9.23;;;2.70;;
38089;SDS011;23904;52.322;10.232;2023-05-18T09:17:09;8.15;;;2.30;;
38089;SDS011;23904;52.322;10.232;2023-05-18T09:19:35;7.85;;;2.28;;
38089;SDS011;23904;52.322;10.232;2023-05-18T09:22:01;8.32;;;2.40;;
38089;SDS011;23904;52.322;10.232;2023-05-18T09:24:28;8.43;;;2.90;;
38089;SDS011;23904;52.322;10.232;2023-05-18T09:26:53;7.72;;;2.10;;
38089;SDS011;23904;52.322;10.232;2023-05-18T09:29:20;7.30;;;2.25;;
38089;SDS011;23904;52.322;10.232;2023-05-18T09:31:48;6.35;;;2.17;;
38089;SDS011;23904;52.322;10.232;2023-05-18T09:34:14;7.38;;;2.45;;
38089;SDS011;23904;52.322;10.232;2023-05-18T09:36:43;9.35;;;2.40;;
38089;SDS011;23904;52.322;10.232;2023-05-18T09:39:13;6.72;;;2.47;;
38089;SDS011;23904;52.322;10.232;2023-05-18T09:41:40;11.25;;;2.80;;
38089;SDS011;23904;52.322;10.232;2023-05-18T09:44:06;5.50;;;1.90;;
38089;SDS011;23904;52.322;10.232;2023-05-18T09:46:36;7.20;;;2.28;;
38089;SDS011;23904;52.322;10.232;2023-05-18T09:49:04;7.45;;;2.33;;
38089;SDS011;23904;52.322;10.232;2023-05-18T09:51:34;5.80;;;2.50;;
38089;SDS011;23904;52.322;10.232;2023-05-18T09:54:01;13.68;;;2.85;;
38089;SDS011;23904;52.322;10.232;2023-05-18T09:56:29;8.48;;;2.35;;
38089;SDS011;23904;52.322;10.232;2023-05-18T09:58:55;8.63;;;3.05;;
38089;SDS011;23904;52.322;10.232;2023-05-18T10:01:22;9.77;;;2.25;;
38089;SDS011;23904;52.322;10.232;2023-05-18T10:03:48;7.35;;;2.30;;
38089;SDS011;23904;52.322;10.232;2023-05-18T10:06:14;8.73;;;2.70;;
38089;SDS011;23904;52.322;10.232;2023-05-18T10:08:44;6.40;;;2.08;;
38089;SDS011;23904;52.322;10.232;2023-05-18T10:11:10;9.80;;;2.53;;
38089;SDS011;23904;52.322;10.232;2023-05-18T10:13:36;7.55;;;2.25;;
38089;SDS011;23904;52.322;10.232;2023-05-18T10:16:02;9.27;;;2.38;;
38089;SDS011;23904;52.322;10.232;2023-05-18T10:18:31;6.63;;;2.63;;
38089;SDS011;23904;52.322;10.232;2023-05-18T10:21:02;8.82;;;2.53;;
38089;SDS011;23904;52.322;10.232;2023-05-18T10:23:31;11.30;;;2.67;;
38089;SDS011;23904;52.322;10.232;2023-05-18T10:26:04;9.35;;;2.63;;
38089;SDS011;23904;52.322;10.232;2023-05-18T10:28:41;9.40;;;2.78;;
38089;SDS011;23904;52.322;10.232;2023-05-18T10:31:09;7.03;;;2.58;;
38089;SDS011;23904;52.322;10.232;2023-05-18T10:33:36;7.53;;;2.70;;
38089;SDS011;23904;52.322;10.232;2023-05-18T10:36:03;10.77;;;2.97;;
38089;SDS011;23904;52.322;10.232;2023-05-18T10:38:30;7.13;;;2.50;;
38089;SDS011;23904;52.322;10.232;2023-05-18T10:40:58;8.68;;;2.00;;
38089;SDS011;23904;52.322;10.232;2023-05-18T10:43:25;6.97;;;2.28;;
38089;SDS011;23904;52.322;10.232;2023-05-18T10:45:59;7.93;;;2.65;;
38089;SDS011;23904;52.322;10.232;2023-05-18T10:48:25;8.43;;;2.60;;
38089;SDS011;23904;52.322;10.232;2023-05-18T10:50:54;7.57;;;3.08;;
38089;SDS011;23904;52.322;10.232;2023-05-18T10:53:22;7.55;;;2.28;;
38089;SDS011;23904;52.322;10.232;2023-05-18T10:55:54;8.23;;;2.92;;
38089;SDS011;23904;52.322;10.232;2023-05-18T10:58:20;10.10;;;2.20;;
38089;SDS011;23904;52.322;10.232;2023-05-18T11:00:57;8.05;;;2.30;;
38089;SDS011;23904;52.322;10.232;2023-05-18T11:03:25;9.77;;;2.47;;
38089;SDS011;23904;52.322;10.232;2023-05-18T11:06:09;9.50;;;2.60;;
38089;SDS011;23904;52.322;10.232;2023-05-18T11:08:45;7.82;;;2.28;;
38089;SDS011;23904;52.322;10.232;2023-05-18T11:11:13;8.18;;;1.92;;
38089;SDS011;23904;52.322;10.232;2023-05-18T11:13:42;9.63;;;2.65;;
38089;SDS011;23904;52.322;10.232;2023-05-18T11:16:13;8.68;;;2.63;;
38089;SDS011;23904;52.322;10.232;2023-05-18T11:18:41;14.25;;;2.65;;
38089;SDS011;23904;52.322;10.232;2023-05-18T11:24:16;14.43;;;3.35;;
38089;SDS011;23904;52.322;10.232;2023-05-18T11:26:44;7.18;;;2.80;;
38089;SDS011;23904;52.322;10.232;2023-05-18T11:29:16;11.75;;;3.50;;
38089;SDS011;23904;52.322;10.232;2023-05-18T11:31:46;13.32;;;2.65;;
38089;SDS011;23904;52.322;10.232;2023-05-18T11:37:08;6.82;;;2.40;;
38089;SDS011;23904;52.322;10.232;2023-05-18T11:39:36;10.63;;;2.63;;
38089;SDS011;23904;52.322;10.232;2023-05-18T11:42:05;8.18;;;2.78;;
38089;SDS011;23904;52.322;10.232;2023-05-18T11:44:33;8.02;;;2.08;;
38089;SDS011;23904;52.322;10.232;2023-05-18T11:54:58;11.32;;;2.67;;
38089;SDS011;23904;52.322;10.232;2023-05-18T11:57:25;9.63;;;2.10;;
38089;SDS011;23904;52.322;10.232;2023-05-18T12:00:04;7.65;;;2.00;;
38089;SDS011;23904;52.322;10.232;2023-05-18T12:02:37;8.55;;;2.55;;
38089;SDS011;23904;52.322;10.232;2023-05-18T12:05:07;8.73;;;2.45;;
38089;SDS011;23904;52.322;10.232;2023-05-18T12:07:34;11.10;;;2.70;;
38089;SDS011;23904;52.322;10.232;2023-05-18T12:10:02;9.00;;;2.33;;
38089;SDS011;23904;52.322;10.232;2023-05-18T12:12:36;11.43;;;2.45;;
38089;SDS011;23904;52.322;10.232;2023-05-18T12:15:04;10.93;;;3.15;;
38089;SDS011;23904;52.322;10.232;2023-05-18T12:20:13;6.70;;;2.15;;
38089;SDS011;23904;52.322;10.232;2023-05-18T12:22:41;11.10;;;2.65;;
38089;SDS011;23904;52.322;10.232;2023-05-18T12:25:09;10.15;;;2.33;;
38089;SDS011;23904;52.322;10.232;2023-05-18T12:27:38;12.20;;;2.03;;
38089;SDS011;23904;52.322;10.232;2023-05-18T12:30:11;8.90;;;2.17;;
38089;SDS011;23904;52.322;10.232;2023-05-18T12:32:54;8.45;;;2.15;;
38089;SDS011;23904;52.322;10.232;2023-05-18T12:35:21;10.60;;;2.75;;
38089;SDS011;23904;52.322;10.232;2023-05-18T12:37:48;9.52;;;2.47;;
38089;SDS011;23904;52.322;10.232;2023-05-18T12:40:14;8.45;;;2.17;;
38089;SDS011;23904;52.322;10.232;2023-05-18T12:42:51;5.68;;;2.22;;
38089;SDS011;23904;52.322;10.232;2023-05-18T12:45:27;8.30;;;2.33;;
38089;SDS011;23904;52.322;10.232;2023-05-18T12:52:56;13.73;;;2.72;;
38089;SDS011;23904;52.322;10.232;2023-05-18T12:55:22;11.80;;;2.92;;
38089;SDS011;23904;52.322;10.232;2023-05-18T13:00:34;9.63;;;2.92;;
38089;SDS011;23904;52.322;10.232;2023-05-18T13:03:08;7.70;;;2.38;;
38089;SDS011;23904;52.322;10.232;2023-05-18T13:05:50;8.65;;;2.15;;
38089;SDS011;23904;52.322;10.232;2023-05-18T13:08:31;10.40;;;2.97;;
38089;SDS011;23904;52.322;10.232;2023-05-18T13:11:04;8.93;;;2.67;;
38089;SDS011;23904;52.322;10.232;2023-05-18T13:13:32;13.02;;;3.05;;
38089;SDS011;23904;52.322;10.232;2023-05-18T13:15:58;8.60;;;2.60;;
38089;SDS011;23904;52.322;10.232;2023-05-18T13:18:24;8.50;;;2.47;;
38089;SDS011;23904;52.322;10.232;2023-05-18T13:20:52;10.52;;;2.47;;
38089;SDS011;23904;52.322;10.232;2023-05-18T13:23:23;9.43;;;2.70;;
38089;SDS011;23904;52.322;10.232;2023-05-18T13:25:52;7.72;;;2.13;;
38089;SDS011;23904;52.322;10.232;2023-05-18T13:28:19;8.50;;;2.35;;
38089;SDS011;23904;52.322;10.232;2023-05-18T13:30:46;7.85;;;2.33;;
38089;SDS011;23904;52.322;10.232;2023-05-18T13:33:14;6.82;;;2.13;;
38089;SDS011;23904;52.322;10.232;2023-05-18T13:35:42;11.43;;;3.08;;
38089;SDS011;23904;52.322;10.232;2023-05-18T13:38:09;9.68;;;2.53;;
38089;SDS011;23904;52.322;10.232;2023-05-18T13:40:38;12.45;;;2.85;;
38089;SDS011;23904;52.322;10.232;2023-05-18T13:43:05;10.10;;;2.05;;
38089;SDS011;23904;52.322;10.232;2023-05-18T13:45:31;8.18;;;2.08;;
38089;SDS011;23904;52.322;10.232;2023-05-18T13:47:57;12.57;;;2.10;;
38089;SDS011;23904;52.322;10.232;2023-05-18T13:50:23;12.07;;;2.58;;
38089;SDS011;23904;52.322;10.232;2023-05-18T13:52:50;10.38;;;2.28;;
38089;SDS011;23904;52.322;10.232;2023-05-18T13:55:16;7.28;;;2.20;;
38089;SDS011;23904;52.322;10.232;2023-05-18T13:57:42;11.30;;;2.53;;
38089;SDS011;23904;52.322;10.232;2023-05-18T14:00:09;11.02;;;2.60;;
38089;SDS011;23904;52.322;10.232;2023-05-18T14:02:40;9.13;;;2.72;;
38089;SDS011;23904;52.322;10.232;2023-05-18T14:05:08;8.38;;;3.17;;
38089;SDS011;23904;52.322;10.232;2023-05-18T14:07:37;9.93;;;2.38;;
38089;SDS011;23904;52.322;10.232;2023-05-18T14:10:06;11.60;;;2.70;;
38089;SDS011;23904;52.322;10.232;2023-05-18T14:12:33;11.95;;;2.42;;
38089;SDS011;23904;52.322;10.232;2023-05-18T14:15:00;9.35;;;2.17;;
38089;SDS011;23904;52.322;10.232;2023-05-18T14:17:26;8.20;;;2.40;;
38089;SDS011;23904;52.322;10.232;2023-05-18T14:19:53;3.78;;;1.60;;
38089;SDS011;23904;52.322;10.232;2023-05-18T14:22:19;9.30;;;2.03;;
38089;SDS011;23904;52.322;10.232;2023-05-18T14:24:46;9.80;;;2.33;;
38089;SDS011;23904;52.322;10.232;2023-05-18T14:27:14;7.20;;;2.65;;
38089;SDS011;23904;52.322;10.232;2023-05-18T14:29:40;11.90;;;3.08;;
38089;SDS011;23904;52.322;10.232;2023-05-18T14:32:06;9.07;;;2.65;;
38089;SDS011;23904;52.322;10.232;2023-05-18T14:34:32;6.15;;;1.92;;
38089;SDS011;23904;52.322;10.232;2023-05-18T14:36:57;10.20;;;2.10;;
38089;SDS011;23904;52.322;10.232;2023-05-18T14:39:23;9.05;;;2.50;;
38089;SDS011;23904;52.322;10.232;2023-05-18T14:41:49;11.98;;;2.35;;
38089;SDS011;23904;52.322;10.232;2023-05-18T14:44:14;7.40;;;2.22;;
38089;SDS011;23904;52.322;10.232;2023-05-18T14:46:40;7.78;;;2.20;;
38089;SDS011;23904;52.322;10.232;2023-05-18T14:49:07;9.38;;;2.33;;
38089;SDS011;23904;52.322;10.232;2023-05-18T14:51:32;12.43;;;2.83;;
38089;SDS011;23904;52.322;10.232;2023-05-18T14:53:58;6.88;;;2.15;;
38089;SDS011;23904;52.322;10.232;2023-05-18T14:56:24;9.32;;;2.00;;
38089;SDS011;23904;52.322;10.232;2023-05-18T14:58:50;9.23;;;2.42;;
38089;SDS011;23904;52.322;10.232;2023-05-18T15:01:16;8.07;;;2.17;;
38089;SDS011;23904;52.322;10.232;2023-05-18T15:03:42;6.97;;;1.85;;